This is the latest recevied weather packets stored in our database for station/object KC9GSD. If no packets are shown the sender has not sent any weather packets the latest 10 day(s).
| Time | Temp. | Humidity | Pressure | Rain* | Wind** | Luminosity | Snow |
|---|---|---|---|---|---|---|---|
| 1777457129 | 16.11° C | 97% | 1014.9 hPa | 0 mm | - | 0 W/m² | - |
| 1777456826 | 16.11° C | 97% | 1014.8 hPa | 0 mm | - | 0 W/m² | - |
| 1777456526 | 16.11° C | 97% | 1015 hPa | 0 mm | - | 0 W/m² | - |
| 1777456221 | 16.11° C | 97% | 1014.7 hPa | 0 mm | - | 0 W/m² | - |
| 1777455917 | 16.11° C | 97% | 1014.7 hPa | 0 mm | - | 0 W/m² | - |
| 1777455615 | 16.11° C | 97% | 1014.5 hPa | 0 mm | - | 0 W/m² | - |
| 1777455311 | 16.11° C | 97% | 1014.4 hPa | 0 mm | - | 0 W/m² | - |
| 1777455008 | 16.11° C | 97% | 1014.3 hPa | 0 mm | - | 0 W/m² | - |
| 1777454705 | 16.11° C | 97% | 1014.2 hPa | 0 mm | - | 0 W/m² | - |
| 1777454400 | 16.11° C | 97% | 1014.2 hPa | 0 mm | - | 0 W/m² | - |
| 1777454097 | 16.11° C | 97% | 1014.1 hPa | 0 mm | - | 0 W/m² | - |
| 1777453794 | 15.56° C | 97% | 1013.8 hPa | 0 mm | - | 0 W/m² | - |
| 1777453492 | 15.56° C | 97% | 1013.7 hPa | 0 mm | - | 0 W/m² | - |
| 1777453188 | 15.56° C | 97% | 1013.5 hPa | 0 mm | - | 0 W/m² | - |
| 1777452884 | 15.56° C | 96% | 1013.2 hPa | 0 mm | - | 0 W/m² | - |
| 1777452582 | 15.56° C | 96% | 1013.1 hPa | 0 mm | - | 0 W/m² | - |
| 1777452278 | 15.56° C | 96% | 1012.4 hPa | 0 mm | - | 0 W/m² | - |
| 1777451978 | 16.11° C | 96% | 1012.1 hPa | 1.78 mm | - | 0 W/m² | - |
| 1777451674 | 15.56° C | 96% | 1011.7 hPa | 1.78 mm | - | 0 W/m² | - |
| 1777451369 | 15.56° C | 97% | 1011.2 hPa | 1.27 mm | - | 0 W/m² | - |
| 1777451066 | 15.56° C | 98% | 1010.4 hPa | 7.87 mm | - | 0 W/m² | - |
| 1777450762 | 15.56° C | 98% | 1011 hPa | 9.65 mm | - | 0 W/m² | - |
| 1777450458 | 16.11° C | 98% | 1014.1 hPa | 4.32 mm | - | 0 W/m² | - |
| 1777450154 | 16.11° C | 98% | 1015.7 hPa | 3.05 mm | - | 0 W/m² | - |
| 1777449851 | 16.11° C | 98% | 1015.7 hPa | 3.05 mm | - | 0 W/m² | - |
* Rain latest hour (hover to see other rain measurements)
** Current wind speed in m/s (hover to see current wind gust speed)